Nearby METAR Reports

 

KMGY - Dayton, Ohio, USA
Distance from station: N 3mi, 5km
Updated: 03/23/2019 6:53pm
Clear
Clear
 Wind from S
Wind: S 3 mph , 6 km/h
Temperature: 54°F , 12°C
Dew Point: 16°F , -9°C
Humidity: 22%
Barometer: 30.26 inHg , 1024.7 hPa
Clouds: Clear
Visibility: 10 miles , 16 km
2019/03/23 22:53 KMGY 232253Z AUTO 19003KT 10SM CLR 12/M09 A3026 RMK AO2 SLP253 T01221089
KMWO - Middletown/Hook, Ohio, USA
Distance from station: W 9mi, 14km
Updated: 03/23/2019 6:55pm
Clear
Clear
 Wind from WSW
Wind: WSW 6 mph , 9 km/h
Temperature: 54°F , 12°C
Dew Point: 18°F , -8°C
Humidity: 24%
Barometer: 30.29 inHg , 1025.7 hPa
Clouds: Clear
Visibility: 10 miles , 16 km
2019/03/23 22:55 KMWO 232255Z AUTO 25005KT 10SM CLR 12/M08 A3029 RMK AO2 T01211077
 
KHAO - Hamilton, Ohio, USA
Distance from station: SW 20mi, 32km
Updated: 03/23/2019 6:53pm
Clear
Clear
 Wind from varies
Wind: varies 3 mph , 6 km/h
Temperature: 55°F , 13°C
Dew Point: 18°F , -8°C
Humidity: 23%
Barometer: 30.28 inHg , 1025.4 hPa
Clouds: Clear
Visibility: 10 miles , 16 km
2019/03/23 22:53 KHAO 232253Z AUTO VRB03KT 10SM CLR 13/M08 A3028 RMK AO2 SLP260 T01331078
KFFO - Wright Paterson, Ohio, USA
Distance from station: NNE 21mi, 34km
Updated: 03/23/2019 6:56pm
Clear
Clear
 Wind from SSW
Wind: SSW 6 mph , 9 km/h
Temperature: 52°F , 11°C
Dew Point: 18°F , -8°C
Humidity: 26%
Barometer: 30.27 inHg , 1025.1 hPa
Clouds: Clear
Visibility: 10 miles , 16 km
2019/03/23 22:56 KFFO 232256Z AUTO 21005KT 10SM CLR 11/M08 A3027 RMK AO2 SLP261 T01141085
 
KDAY - Dayton, Ohio, USA
Distance from station: N 24mi, 39km
Updated: 03/23/2019 6:56pm
Few Clouds
Few Clouds
 Wind from WSW
Wind: WSW 7 mph , 11 km/h
Temperature: 54°F , 12°C
Dew Point: 18°F , -8°C
Humidity: 24%
Barometer: 30.27 inHg , 1025.1 hPa
Clouds: Few Clouds
Visibility: 10 miles , 16 km
Cloud details: Few Clouds 25000 ft
2019/03/23 22:56 KDAY 232256Z 24006KT 10SM FEW250 12/M08 A3027 RMK AO2 SLP259 T01171083
KILN - Wilmington, Ohio, USA
Distance from station: ESE 25mi, 39km
Updated: 03/23/2019 6:54pm
Clear
Clear
 Wind from SSW
Wind: SSW 6 mph , 9 km/h
Temperature: 52°F , 11°C
Dew Point: 19°F , -7°C
Humidity: 28%
Barometer: 30.27 inHg , 1025.1 hPa
Clouds: Clear
Visibility: 10 miles , 16 km
2019/03/23 22:54 KILN 232254Z AUTO 20005KT 10SM CLR 11/M07 A3027 RMK AO2 SLP269 T01111072
 
KSGH - Springfield Muni, Ohio, USA
Distance from station: NE 29mi, 46km
Updated: 03/23/2019 6:56pm
Clear
Clear
 Wind from W
Wind: W 5 mph , 7 km/h
Temperature: 52°F , 11°C
Dew Point: 19°F , -7°C
Humidity: 28%
Barometer: 30.27 inHg , 1025.1 hPa
Clouds: Clear
Visibility: 10 miles , 16 km
2019/03/23 22:56 KSGH 232256Z AUTO 27004KT 10SM CLR 11/M07 A3027 RMK AO2 SLP261 T01111067
KI69 - Batavia, Ohio, USA
Distance from station: S 32mi, 52km
Updated: 03/23/2019 6:55pm
Clear
Clear
 Wind from SW
Wind: SW 3 mph , 6 km/h
Temperature: 55°F , 13°C
Dew Point: 18°F , -8°C
Humidity: 23%
Barometer: 30.28 inHg , 1025.4 hPa
Clouds: Clear
Visibility: 10 miles , 16 km
2019/03/23 22:55 KI69 232255Z AUTO 23003KT 10SM CLR 13/M08 A3028 RMK AO2 T01301081
 
KLUK - Cincinnat/Lunken, Ohio, USA
Distance from station: SSW 33mi, 53km
Updated: 03/23/2019 6:53pm
Clear
Clear
 Wind from calm
Wind: Calm
Temperature: 55°F , 13°C
Dew Point: 21°F , -6°C
Humidity: 26%
Barometer: 30.28 inHg , 1025.4 hPa
Clouds: Clear
Visibility: 10 miles , 16 km
2019/03/23 22:53 KLUK 232253Z 00000KT 10SM CLR 13/M06 A3028 RMK AO2 SLP256 T01331061
KCVG - Covington, Kentucky, USA
Distance from station: SSW 42mi, 67km
Updated: 03/23/2019 6:52pm
Partly cloudy
Partly cloudy
 Wind from SW
Wind: SW 5 mph , 7 km/h
Temperature: 55°F , 13°C
Dew Point: 12°F , -11°C
Humidity: 18%
Barometer: 30.26 inHg , 1024.7 hPa
Clouds: Partly cloudy
Visibility: 10 miles , 16 km
Cloud details: Few Clouds 15000 ft
Partly cloudy 25000 ft
2019/03/23 22:52 KCVG 232252Z 23004KT 10SM FEW150 SCT250 13/M11 A3026 RMK AO2 SLP250 T01331106
 
KVES - Versailles, Ohio, USA
Distance from station: NNW 47mi, 76km
Updated: 03/23/2019 6:50pm
Clear
Clear
 Wind from W
Wind: W 3 mph , 6 km/h
Temperature: 50°F , 10°C
Dew Point: 23°F , -5°C
Humidity: 35%
Barometer: 30.27 inHg , 1025.1 hPa
Clouds: Clear
Visibility: 10 miles , 16 km
2019/03/23 22:50 KVES 232250Z AUTO 27003KT 10SM CLR 10/M05 A3027 RMK AO2